sensor_id;sensor_type;location;lat;lon;timestamp;P1;durP1;ratioP1;P2;durP2;ratioP2
67757;SDS011;54562;47.620;18.786;2023-12-28T00:01:02;11.30;;;6.60;;
67757;SDS011;54562;47.620;18.786;2023-12-28T00:04:35;10.80;;;6.20;;
67757;SDS011;54562;47.620;18.786;2023-12-28T00:07:47;12.70;;;6.40;;
67757;SDS011;54562;47.620;18.786;2023-12-28T00:11:13;10.60;;;6.40;;
67757;SDS011;54562;47.620;18.786;2023-12-28T00:14:27;12.00;;;6.10;;
67757;SDS011;54562;47.620;18.786;2023-12-28T00:17:52;12.10;;;6.20;;
67757;SDS011;54562;47.620;18.786;2023-12-28T00:21:19;11.00;;;5.60;;
67757;SDS011;54562;47.620;18.786;2023-12-28T00:24:52;10.50;;;5.80;;
67757;SDS011;54562;47.620;18.786;2023-12-28T00:28:25;10.10;;;5.70;;
67757;SDS011;54562;47.620;18.786;2023-12-28T00:31:58;11.50;;;5.40;;
67757;SDS011;54562;47.620;18.786;2023-12-28T00:35:32;12.00;;;6.10;;
67757;SDS011;54562;47.620;18.786;2023-12-28T00:38:52;11.00;;;6.30;;
67757;SDS011;54562;47.620;18.786;2023-12-28T00:42:25;11.70;;;6.30;;
67757;SDS011;54562;47.620;18.786;2023-12-28T00:45:58;11.70;;;6.40;;
67757;SDS011;54562;47.620;18.786;2023-12-28T00:49:31;11.80;;;6.20;;
67757;SDS011;54562;47.620;18.786;2023-12-28T00:52:51;10.80;;;6.20;;
67757;SDS011;54562;47.620;18.786;2023-12-28T00:56:10;11.30;;;6.30;;
67757;SDS011;54562;47.620;18.786;2023-12-28T00:59:30;12.00;;;6.30;;
67757;SDS011;54562;47.620;18.786;2023-12-28T01:02:48;11.00;;;6.50;;
67757;SDS011;54562;47.620;18.786;2023-12-28T01:06:21;12.30;;;6.20;;
67757;SDS011;54562;47.620;18.786;2023-12-28T01:09:55;13.10;;;6.50;;
67757;SDS011;54562;47.620;18.786;2023-12-28T01:13:28;13.80;;;6.70;;
67757;SDS011;54562;47.620;18.786;2023-12-28T01:17:00;10.60;;;6.30;;
67757;SDS011;54562;47.620;18.786;2023-12-28T01:20:15;12.30;;;6.80;;
67757;SDS011;54562;47.620;18.786;2023-12-28T01:23:41;13.40;;;6.70;;
67757;SDS011;54562;47.620;18.786;2023-12-28T01:26:53;11.30;;;6.60;;
67757;SDS011;54562;47.620;18.786;2023-12-28T01:30:18;10.60;;;6.10;;
67757;SDS011;54562;47.620;18.786;2023-12-28T01:33:31;12.90;;;6.80;;
67757;SDS011;54562;47.620;18.786;2023-12-28T01:37:04;13.80;;;7.00;;
67757;SDS011;54562;47.620;18.786;2023-12-28T01:40:36;14.10;;;7.00;;
67757;SDS011;54562;47.620;18.786;2023-12-28T01:44:12;11.70;;;6.70;;
67757;SDS011;54562;47.620;18.786;2023-12-28T01:47:44;12.60;;;7.10;;
67757;SDS011;54562;47.620;18.786;2023-12-28T01:50:57;13.10;;;7.30;;
67757;SDS011;54562;47.620;18.786;2023-12-28T01:54:23;13.70;;;7.90;;
67757;SDS011;54562;47.620;18.786;2023-12-28T01:57:36;14.30;;;8.00;;
67757;SDS011;54562;47.620;18.786;2023-12-28T02:01:02;15.90;;;8.10;;
67757;SDS011;54562;47.620;18.786;2023-12-28T02:04:35;14.50;;;8.00;;
67757;SDS011;54562;47.620;18.786;2023-12-28T02:08:01;12.50;;;7.60;;
67757;SDS011;54562;47.620;18.786;2023-12-28T02:11:35;14.00;;;7.70;;
67757;SDS011;54562;47.620;18.786;2023-12-28T02:15:08;12.60;;;7.80;;
67757;SDS011;54562;47.620;18.786;2023-12-28T02:18:42;14.50;;;7.50;;
67757;SDS011;54562;47.620;18.786;2023-12-28T02:22:10;12.90;;;6.50;;
67757;SDS011;54562;47.620;18.786;2023-12-28T02:25:43;14.80;;;8.10;;
67757;SDS011;54562;47.620;18.786;2023-12-28T02:29:16;13.80;;;8.00;;
67757;SDS011;54562;47.620;18.786;2023-12-28T02:32:51;14.00;;;8.20;;
67757;SDS011;54562;47.620;18.786;2023-12-28T02:36:25;17.40;;;8.50;;
67757;SDS011;54562;47.620;18.786;2023-12-28T02:39:59;13.70;;;8.20;;
67757;SDS011;54562;47.620;18.786;2023-12-28T02:43:32;15.80;;;8.30;;
67757;SDS011;54562;47.620;18.786;2023-12-28T02:47:05;16.20;;;9.20;;
67757;SDS011;54562;47.620;18.786;2023-12-28T02:50:38;16.70;;;8.60;;
67757;SDS011;54562;47.620;18.786;2023-12-28T02:54:11;15.80;;;8.80;;
67757;SDS011;54562;47.620;18.786;2023-12-28T02:57:44;15.60;;;8.70;;
67757;SDS011;54562;47.620;18.786;2023-12-28T03:01:18;15.80;;;8.20;;
67757;SDS011;54562;47.620;18.786;2023-12-28T03:04:51;15.60;;;8.70;;
67757;SDS011;54562;47.620;18.786;2023-12-28T03:08:10;16.30;;;8.70;;
67757;SDS011;54562;47.620;18.786;2023-12-28T03:11:29;16.70;;;9.00;;
67757;SDS011;54562;47.620;18.786;2023-12-28T03:14:48;14.60;;;8.30;;
67757;SDS011;54562;47.620;18.786;2023-12-28T03:18:08;16.30;;;8.40;;
67757;SDS011;54562;47.620;18.786;2023-12-28T03:21:27;14.70;;;8.30;;
67757;SDS011;54562;47.620;18.786;2023-12-28T03:24:53;14.70;;;8.70;;
67757;SDS011;54562;47.620;18.786;2023-12-28T03:31:31;15.30;;;7.90;;
67757;SDS011;54562;47.620;18.786;2023-12-28T03:35:06;13.50;;;8.00;;
67757;SDS011;54562;47.620;18.786;2023-12-28T03:38:32;16.70;;;9.30;;
67757;SDS011;54562;47.620;18.786;2023-12-28T03:42:05;16.20;;;8.70;;
67757;SDS011;54562;47.620;18.786;2023-12-28T03:45:38;16.30;;;8.40;;
67757;SDS011;54562;47.620;18.786;2023-12-28T03:49:11;15.00;;;8.10;;
67757;SDS011;54562;47.620;18.786;2023-12-28T03:52:23;12.90;;;7.80;;
67757;SDS011;54562;47.620;18.786;2023-12-28T03:55:51;14.10;;;8.20;;
67757;SDS011;54562;47.620;18.786;2023-12-28T03:59:24;14.80;;;8.00;;
67757;SDS011;54562;47.620;18.786;2023-12-28T04:02:57;15.30;;;8.40;;
67757;SDS011;54562;47.620;18.786;2023-12-28T04:06:30;13.50;;;7.90;;
67757;SDS011;54562;47.620;18.786;2023-12-28T04:09:56;18.20;;;8.30;;
67757;SDS011;54562;47.620;18.786;2023-12-28T04:13:29;18.40;;;8.10;;
67757;SDS011;54562;47.620;18.786;2023-12-28T04:17:02;13.80;;;8.20;;
67757;SDS011;54562;47.620;18.786;2023-12-28T04:20:35;16.40;;;8.90;;
67757;SDS011;54562;47.620;18.786;2023-12-28T04:23:54;14.10;;;8.30;;
67757;SDS011;54562;47.620;18.786;2023-12-28T04:27:13;16.30;;;8.60;;
67757;SDS011;54562;47.620;18.786;2023-12-28T04:30:39;14.00;;;8.60;;
67757;SDS011;54562;47.620;18.786;2023-12-28T04:34:12;15.90;;;7.90;;
67757;SDS011;54562;47.620;18.786;2023-12-28T04:37:24;14.10;;;7.80;;
67757;SDS011;54562;47.620;18.786;2023-12-28T04:40:51;15.90;;;8.00;;
67757;SDS011;54562;47.620;18.786;2023-12-28T04:44:04;15.30;;;8.30;;
67757;SDS011;54562;47.620;18.786;2023-12-28T04:47:30;15.60;;;8.40;;
67757;SDS011;54562;47.620;18.786;2023-12-28T04:50:43;14.50;;;8.40;;
67757;SDS011;54562;47.620;18.786;2023-12-28T04:54:15;16.50;;;8.30;;
67757;SDS011;54562;47.620;18.786;2023-12-28T04:57:48;15.70;;;8.80;;
67757;SDS011;54562;47.620;18.786;2023-12-28T05:01:21;15.50;;;8.90;;
67757;SDS011;54562;47.620;18.786;2023-12-28T05:04:55;16.40;;;8.90;;
67757;SDS011;54562;47.620;18.786;2023-12-28T05:08:09;17.70;;;10.20;;
67757;SDS011;54562;47.620;18.786;2023-12-28T05:11:34;20.90;;;10.60;;
67757;SDS011;54562;47.620;18.786;2023-12-28T05:14:47;16.90;;;10.10;;
67757;SDS011;54562;47.620;18.786;2023-12-28T05:18:12;19.20;;;11.30;;
67757;SDS011;54562;47.620;18.786;2023-12-28T05:21:25;18.90;;;11.10;;
67757;SDS011;54562;47.620;18.786;2023-12-28T05:24:57;20.00;;;10.50;;
67757;SDS011;54562;47.620;18.786;2023-12-28T05:28:30;19.40;;;10.80;;
67757;SDS011;54562;47.620;18.786;2023-12-28T05:32:03;18.00;;;11.00;;
67757;SDS011;54562;47.620;18.786;2023-12-28T05:35:38;21.20;;;11.40;;
67757;SDS011;54562;47.620;18.786;2023-12-28T05:38:50;20.40;;;11.90;;
67757;SDS011;54562;47.620;18.786;2023-12-28T05:42:16;20.30;;;11.30;;
67757;SDS011;54562;47.620;18.786;2023-12-28T05:45:29;20.40;;;11.90;;
67757;SDS011;54562;47.620;18.786;2023-12-28T05:48:54;19.20;;;11.00;;
67757;SDS011;54562;47.620;18.786;2023-12-28T05:52:07;17.70;;;11.30;;
67757;SDS011;54562;47.620;18.786;2023-12-28T05:55:41;19.00;;;11.00;;
67757;SDS011;54562;47.620;18.786;2023-12-28T05:59:14;18.60;;;10.90;;
67757;SDS011;54562;47.620;18.786;2023-12-28T06:02:49;17.90;;;10.80;;
67757;SDS011;54562;47.620;18.786;2023-12-28T06:06:22;21.30;;;11.50;;
67757;SDS011;54562;47.620;18.786;2023-12-28T06:09:55;18.20;;;11.60;;
67757;SDS011;54562;47.620;18.786;2023-12-28T06:13:07;20.00;;;11.00;;
67757;SDS011;54562;47.620;18.786;2023-12-28T06:16:33;23.30;;;11.50;;
67757;SDS011;54562;47.620;18.786;2023-12-28T06:19:46;22.10;;;12.40;;
67757;SDS011;54562;47.620;18.786;2023-12-28T06:23:11;22.10;;;12.30;;
67757;SDS011;54562;47.620;18.786;2023-12-28T06:26:30;19.60;;;12.10;;
67757;SDS011;54562;47.620;18.786;2023-12-28T06:30:04;21.50;;;11.70;;
67757;SDS011;54562;47.620;18.786;2023-12-28T06:33:38;20.30;;;11.00;;
67757;SDS011;54562;47.620;18.786;2023-12-28T06:37:11;20.60;;;11.50;;
67757;SDS011;54562;47.620;18.786;2023-12-28T06:40:31;20.30;;;12.00;;
67757;SDS011;54562;47.620;18.786;2023-12-28T06:43:49;18.70;;;11.80;;
67757;SDS011;54562;47.620;18.786;2023-12-28T06:47:08;18.30;;;10.90;;
67757;SDS011;54562;47.620;18.786;2023-12-28T06:50:27;21.50;;;11.70;;
67757;SDS011;54562;47.620;18.786;2023-12-28T06:53:46;19.70;;;11.60;;
67757;SDS011;54562;47.620;18.786;2023-12-28T06:57:12;18.80;;;10.50;;
67757;SDS011;54562;47.620;18.786;2023-12-28T07:00:25;20.90;;;11.40;;
67757;SDS011;54562;47.620;18.786;2023-12-28T07:03:51;20.20;;;11.90;;
67757;SDS011;54562;47.620;18.786;2023-12-28T07:07:23;19.10;;;10.60;;
67757;SDS011;54562;47.620;18.786;2023-12-28T07:10:43;20.50;;;11.80;;
67757;SDS011;54562;47.620;18.786;2023-12-28T07:14:01;20.50;;;12.20;;
67757;SDS011;54562;47.620;18.786;2023-12-28T07:17:21;21.80;;;11.60;;
67757;SDS011;54562;47.620;18.786;2023-12-28T07:20:39;20.30;;;12.20;;
67757;SDS011;54562;47.620;18.786;2023-12-28T07:23:59;19.00;;;10.70;;
67757;SDS011;54562;47.620;18.786;2023-12-28T07:27:24;19.70;;;11.00;;
67757;SDS011;54562;47.620;18.786;2023-12-28T07:30:37;16.20;;;10.00;;
67757;SDS011;54562;47.620;18.786;2023-12-28T07:34:02;18.50;;;11.40;;
67757;SDS011;54562;47.620;18.786;2023-12-28T07:37:35;16.80;;;9.90;;
67757;SDS011;54562;47.620;18.786;2023-12-28T07:41:08;19.50;;;11.40;;
67757;SDS011;54562;47.620;18.786;2023-12-28T07:44:41;20.10;;;10.60;;
67757;SDS011;54562;47.620;18.786;2023-12-28T07:48:14;19.50;;;11.30;;
67757;SDS011;54562;47.620;18.786;2023-12-28T07:51:47;24.00;;;12.90;;
67757;SDS011;54562;47.620;18.786;2023-12-28T07:55:00;23.40;;;12.90;;
67757;SDS011;54562;47.620;18.786;2023-12-28T07:58:25;18.90;;;10.30;;
67757;SDS011;54562;47.620;18.786;2023-12-28T08:01:38;16.60;;;9.90;;
67757;SDS011;54562;47.620;18.786;2023-12-28T08:05:04;18.30;;;10.60;;
67757;SDS011;54562;47.620;18.786;2023-12-28T08:08:18;19.00;;;10.50;;
67757;SDS011;54562;47.620;18.786;2023-12-28T08:11:50;17.60;;;9.90;;
67757;SDS011;54562;47.620;18.786;2023-12-28T08:15:24;23.10;;;11.10;;
67757;SDS011;54562;47.620;18.786;2023-12-28T08:18:57;18.00;;;10.80;;
67757;SDS011;54562;47.620;18.786;2023-12-28T08:22:30;21.40;;;10.70;;
67757;SDS011;54562;47.620;18.786;2023-12-28T08:25:49;18.00;;;10.40;;
67757;SDS011;54562;47.620;18.786;2023-12-28T08:29:09;20.30;;;10.10;;
67757;SDS011;54562;47.620;18.786;2023-12-28T08:32:27;19.50;;;11.20;;
67757;SDS011;54562;47.620;18.786;2023-12-28T08:35:47;20.10;;;11.20;;
67757;SDS011;54562;47.620;18.786;2023-12-28T08:39:05;18.80;;;10.80;;
67757;SDS011;54562;47.620;18.786;2023-12-28T08:42:24;18.40;;;11.00;;
67757;SDS011;54562;47.620;18.786;2023-12-28T08:45:57;19.70;;;12.30;;
67757;SDS011;54562;47.620;18.786;2023-12-28T08:49:37;23.90;;;13.50;;
67757;SDS011;54562;47.620;18.786;2023-12-28T08:53:10;28.70;;;13.90;;
67757;SDS011;54562;47.620;18.786;2023-12-28T08:56:23;28.00;;;15.10;;
67757;SDS011;54562;47.620;18.786;2023-12-28T08:59:49;20.80;;;11.70;;
67757;SDS011;54562;47.620;18.786;2023-12-28T09:03:23;20.40;;;12.10;;
67757;SDS011;54562;47.620;18.786;2023-12-28T09:06:56;22.80;;;13.00;;
67757;SDS011;54562;47.620;18.786;2023-12-28T09:10:09;22.80;;;11.80;;
67757;SDS011;54562;47.620;18.786;2023-12-28T09:13:35;19.70;;;12.00;;
67757;SDS011;54562;47.620;18.786;2023-12-28T09:17:08;23.10;;;13.30;;
67757;SDS011;54562;47.620;18.786;2023-12-28T09:20:42;21.60;;;12.90;;
67757;SDS011;54562;47.620;18.786;2023-12-28T09:24:15;21.20;;;12.10;;
67757;SDS011;54562;47.620;18.786;2023-12-28T09:27:28;23.00;;;13.70;;
67757;SDS011;54562;47.620;18.786;2023-12-28T09:30:54;21.40;;;13.30;;
67757;SDS011;54562;47.620;18.786;2023-12-28T09:34:06;18.00;;;11.00;;
67757;SDS011;54562;47.620;18.786;2023-12-28T09:37:39;22.10;;;12.10;;
67757;SDS011;54562;47.620;18.786;2023-12-28T09:40:52;19.00;;;10.40;;
67757;SDS011;54562;47.620;18.786;2023-12-28T09:44:18;19.70;;;11.50;;
67757;SDS011;54562;47.620;18.786;2023-12-28T09:50:52;20.50;;;11.80;;
67757;SDS011;54562;47.620;18.786;2023-12-28T09:54:28;22.50;;;12.20;;
67757;SDS011;54562;47.620;18.786;2023-12-28T09:57:40;19.20;;;11.00;;
67757;SDS011;54562;47.620;18.786;2023-12-28T10:01:06;18.60;;;11.20;;
67757;SDS011;54562;47.620;18.786;2023-12-28T10:04:26;36.40;;;20.40;;
67757;SDS011;54562;47.620;18.786;2023-12-28T10:07:47;20.60;;;12.40;;
67757;SDS011;54562;47.620;18.786;2023-12-28T10:11:00;20.40;;;12.40;;
67757;SDS011;54562;47.620;18.786;2023-12-28T10:17:37;19.30;;;11.40;;
67757;SDS011;54562;47.620;18.786;2023-12-28T10:21:03;24.60;;;13.20;;
67757;SDS011;54562;47.620;18.786;2023-12-28T10:24:16;21.60;;;12.70;;
67757;SDS011;54562;47.620;18.786;2023-12-28T10:27:52;25.60;;;14.50;;
67757;SDS011;54562;47.620;18.786;2023-12-28T10:31:04;32.40;;;24.00;;
67757;SDS011;54562;47.620;18.786;2023-12-28T10:34:30;26.00;;;19.40;;
67757;SDS011;54562;47.620;18.786;2023-12-28T10:37:49;25.70;;;15.10;;
67757;SDS011;54562;47.620;18.786;2023-12-28T10:41:10;24.20;;;13.00;;
67757;SDS011;54562;47.620;18.786;2023-12-28T10:44:30;19.00;;;11.70;;
67757;SDS011;54562;47.620;18.786;2023-12-28T10:48:00;19.80;;;11.60;;
67757;SDS011;54562;47.620;18.786;2023-12-28T10:51:35;19.50;;;11.70;;
67757;SDS011;54562;47.620;18.786;2023-12-28T10:55:18;21.00;;;11.90;;
67757;SDS011;54562;47.620;18.786;2023-12-28T10:58:47;20.80;;;12.00;;
67757;SDS011;54562;47.620;18.786;2023-12-28T11:02:14;19.70;;;11.90;;
67757;SDS011;54562;47.620;18.786;2023-12-28T11:05:48;21.90;;;12.30;;
67757;SDS011;54562;47.620;18.786;2023-12-28T11:09:21;19.10;;;11.80;;
67757;SDS011;54562;47.620;18.786;2023-12-28T11:12:40;22.60;;;13.60;;
67757;SDS011;54562;47.620;18.786;2023-12-28T11:15:59;20.40;;;12.50;;
67757;SDS011;54562;47.620;18.786;2023-12-28T11:19:20;21.70;;;13.90;;
67757;SDS011;54562;47.620;18.786;2023-12-28T11:22:48;23.10;;;13.30;;
67757;SDS011;54562;47.620;18.786;2023-12-28T11:26:21;21.40;;;13.50;;
67757;SDS011;54562;47.620;18.786;2023-12-28T11:29:42;23.80;;;14.50;;
67757;SDS011;54562;47.620;18.786;2023-12-28T11:33:15;24.20;;;15.80;;
67757;SDS011;54562;47.620;18.786;2023-12-28T11:36:50;23.10;;;12.80;;
67757;SDS011;54562;47.620;18.786;2023-12-28T11:40:24;19.70;;;12.50;;
67757;SDS011;54562;47.620;18.786;2023-12-28T11:44:02;19.90;;;12.50;;
67757;SDS011;54562;47.620;18.786;2023-12-28T11:47:16;20.80;;;11.50;;
67757;SDS011;54562;47.620;18.786;2023-12-28T11:50:45;18.80;;;12.30;;
67757;SDS011;54562;47.620;18.786;2023-12-28T11:53:58;22.40;;;12.00;;
67757;SDS011;54562;47.620;18.786;2023-12-28T11:57:24;25.00;;;13.90;;
67757;SDS011;54562;47.620;18.786;2023-12-28T12:00:43;20.80;;;11.20;;
67757;SDS011;54562;47.620;18.786;2023-12-28T12:04:16;21.10;;;12.80;;
67757;SDS011;54562;47.620;18.786;2023-12-28T12:07:50;18.30;;;11.10;;
67757;SDS011;54562;47.620;18.786;2023-12-28T12:11:04;19.10;;;10.90;;
67757;SDS011;54562;47.620;18.786;2023-12-28T12:14:30;19.50;;;11.70;;
67757;SDS011;54562;47.620;18.786;2023-12-28T12:17:42;23.20;;;12.60;;
67757;SDS011;54562;47.620;18.786;2023-12-28T12:21:02;17.60;;;10.10;;
67757;SDS011;54562;47.620;18.786;2023-12-28T12:24:35;23.70;;;12.80;;
67757;SDS011;54562;47.620;18.786;2023-12-28T12:27:48;17.50;;;10.80;;
67757;SDS011;54562;47.620;18.786;2023-12-28T12:31:13;22.60;;;12.50;;
67757;SDS011;54562;47.620;18.786;2023-12-28T12:34:26;16.00;;;10.00;;
67757;SDS011;54562;47.620;18.786;2023-12-28T12:37:51;16.50;;;9.80;;
67757;SDS011;54562;47.620;18.786;2023-12-28T12:41:04;17.70;;;10.90;;
67757;SDS011;54562;47.620;18.786;2023-12-28T12:44:29;18.20;;;10.60;;
67757;SDS011;54562;47.620;18.786;2023-12-28T12:47:48;17.30;;;10.40;;
67757;SDS011;54562;47.620;18.786;2023-12-28T12:51:07;18.50;;;10.00;;
67757;SDS011;54562;47.620;18.786;2023-12-28T12:54:26;16.70;;;10.10;;
67757;SDS011;54562;47.620;18.786;2023-12-28T12:57:52;18.30;;;10.50;;
67757;SDS011;54562;47.620;18.786;2023-12-28T13:01:12;21.00;;;11.30;;
67757;SDS011;54562;47.620;18.786;2023-12-28T13:04:45;19.50;;;10.90;;
67757;SDS011;54562;47.620;18.786;2023-12-28T13:08:18;18.80;;;10.40;;
67757;SDS011;54562;47.620;18.786;2023-12-28T13:11:31;19.20;;;10.50;;
67757;SDS011;54562;47.620;18.786;2023-12-28T13:14:57;18.90;;;11.30;;
67757;SDS011;54562;47.620;18.786;2023-12-28T13:18:10;18.80;;;11.30;;
67757;SDS011;54562;47.620;18.786;2023-12-28T13:21:23;19.50;;;11.80;;
67757;SDS011;54562;47.620;18.786;2023-12-28T13:24:41;19.70;;;12.70;;
67757;SDS011;54562;47.620;18.786;2023-12-28T13:28:03;17.80;;;10.90;;
67757;SDS011;54562;47.620;18.786;2023-12-28T13:31:28;18.00;;;11.30;;
67757;SDS011;54562;47.620;18.786;2023-12-28T13:35:02;19.30;;;10.10;;
67757;SDS011;54562;47.620;18.786;2023-12-28T13:38:35;19.50;;;11.50;;
67757;SDS011;54562;47.620;18.786;2023-12-28T13:42:08;22.60;;;12.20;;
67757;SDS011;54562;47.620;18.786;2023-12-28T13:45:41;17.80;;;10.90;;
67757;SDS011;54562;47.620;18.786;2023-12-28T13:48:53;18.20;;;11.50;;
67757;SDS011;54562;47.620;18.786;2023-12-28T13:52:19;17.20;;;10.80;;
67757;SDS011;54562;47.620;18.786;2023-12-28T13:55:32;16.60;;;11.70;;
67757;SDS011;54562;47.620;18.786;2023-12-28T13:58:57;18.60;;;11.40;;
67757;SDS011;54562;47.620;18.786;2023-12-28T14:02:16;19.30;;;12.60;;
67757;SDS011;54562;47.620;18.786;2023-12-28T14:05:50;21.70;;;13.10;;
67757;SDS011;54562;47.620;18.786;2023-12-28T14:13:20;20.40;;;12.40;;
67757;SDS011;54562;47.620;18.786;2023-12-28T14:16:55;24.20;;;15.60;;
67757;SDS011;54562;47.620;18.786;2023-12-28T14:20:28;25.60;;;18.00;;
67757;SDS011;54562;47.620;18.786;2023-12-28T14:24:24;19.50;;;12.90;;
67757;SDS011;54562;47.620;18.786;2023-12-28T14:39:50;23.40;;;14.00;;
67757;SDS011;54562;47.620;18.786;2023-12-28T14:43:34;21.60;;;13.20;;
67757;SDS011;54562;47.620;18.786;2023-12-28T14:47:10;19.90;;;12.60;;
67757;SDS011;54562;47.620;18.786;2023-12-28T14:50:42;21.10;;;13.10;;
67757;SDS011;54562;47.620;18.786;2023-12-28T14:54:37;19.70;;;13.00;;
67757;SDS011;54562;47.620;18.786;2023-12-28T14:58:31;25.40;;;14.50;;
67757;SDS011;54562;47.620;18.786;2023-12-28T15:02:29;25.50;;;15.00;;
67757;SDS011;54562;47.620;18.786;2023-12-28T15:09:50;28.20;;;16.00;;
67757;SDS011;54562;47.620;18.786;2023-12-28T15:13:26;32.40;;;16.90;;
67757;SDS011;54562;47.620;18.786;2023-12-28T15:17:01;26.10;;;15.20;;
67757;SDS011;54562;47.620;18.786;2023-12-28T15:20:28;26.70;;;14.00;;
67757;SDS011;54562;47.620;18.786;2023-12-28T15:23:41;19.80;;;12.10;;
67757;SDS011;54562;47.620;18.786;2023-12-28T15:30:18;18.70;;;11.00;;
67757;SDS011;54562;47.620;18.786;2023-12-28T15:33:43;20.00;;;11.80;;
67757;SDS011;54562;47.620;18.786;2023-12-28T15:37:17;17.90;;;11.40;;
67757;SDS011;54562;47.620;18.786;2023-12-28T15:40:49;19.80;;;12.30;;
67757;SDS011;54562;47.620;18.786;2023-12-28T15:44:23;20.80;;;13.60;;
67757;SDS011;54562;47.620;18.786;2023-12-28T15:47:56;29.80;;;14.60;;
67757;SDS011;54562;47.620;18.786;2023-12-28T15:51:29;29.30;;;13.50;;
67757;SDS011;54562;47.620;18.786;2023-12-28T15:55:02;23.30;;;13.90;;
67757;SDS011;54562;47.620;18.786;2023-12-28T15:58:38;23.30;;;13.80;;
67757;SDS011;54562;47.620;18.786;2023-12-28T16:02:11;24.00;;;14.50;;
67757;SDS011;54562;47.620;18.786;2023-12-28T16:05:37;24.10;;;13.70;;
67757;SDS011;54562;47.620;18.786;2023-12-28T16:09:10;23.20;;;14.10;;
67757;SDS011;54562;47.620;18.786;2023-12-28T16:12:43;23.90;;;14.40;;
67757;SDS011;54562;47.620;18.786;2023-12-28T16:16:16;23.30;;;14.00;;
67757;SDS011;54562;47.620;18.786;2023-12-28T16:19:45;21.30;;;14.00;;
67757;SDS011;54562;47.620;18.786;2023-12-28T16:23:18;22.10;;;13.30;;
67757;SDS011;54562;47.620;18.786;2023-12-28T16:26:52;21.70;;;13.10;;
67757;SDS011;54562;47.620;18.786;2023-12-28T16:30:25;21.00;;;12.30;;
67757;SDS011;54562;47.620;18.786;2023-12-28T16:33:52;21.00;;;13.10;;
67757;SDS011;54562;47.620;18.786;2023-12-28T16:37:28;20.40;;;12.20;;
67757;SDS011;54562;47.620;18.786;2023-12-28T16:41:01;22.80;;;13.60;;
67757;SDS011;54562;47.620;18.786;2023-12-28T16:44:34;24.00;;;14.90;;
67757;SDS011;54562;47.620;18.786;2023-12-28T16:48:07;22.70;;;13.60;;
67757;SDS011;54562;47.620;18.786;2023-12-28T16:51:41;43.20;;;23.80;;
67757;SDS011;54562;47.620;18.786;2023-12-28T16:55:14;40.50;;;22.00;;
67757;SDS011;54562;47.620;18.786;2023-12-28T16:58:49;22.40;;;13.20;;
67757;SDS011;54562;47.620;18.786;2023-12-28T17:02:22;21.90;;;12.90;;
67757;SDS011;54562;47.620;18.786;2023-12-28T17:05:48;23.50;;;14.10;;
67757;SDS011;54562;47.620;18.786;2023-12-28T17:09:00;24.60;;;14.80;;
67757;SDS011;54562;47.620;18.786;2023-12-28T17:12:30;24.80;;;14.90;;
67757;SDS011;54562;47.620;18.786;2023-12-28T17:15:53;28.60;;;17.30;;
67757;SDS011;54562;47.620;18.786;2023-12-28T17:19:26;23.80;;;13.90;;
67757;SDS011;54562;47.620;18.786;2023-12-28T17:22:59;26.20;;;14.90;;
67757;SDS011;54562;47.620;18.786;2023-12-28T17:26:36;26.20;;;14.90;;
67757;SDS011;54562;47.620;18.786;2023-12-28T17:30:13;24.20;;;14.50;;
67757;SDS011;54562;47.620;18.786;2023-12-28T17:33:47;21.80;;;13.60;;
67757;SDS011;54562;47.620;18.786;2023-12-28T17:37:21;23.60;;;13.50;;
67757;SDS011;54562;47.620;18.786;2023-12-28T17:40:55;20.20;;;11.80;;
67757;SDS011;54562;47.620;18.786;2023-12-28T17:44:32;19.00;;;11.70;;
67757;SDS011;54562;47.620;18.786;2023-12-28T17:48:11;20.60;;;12.10;;
67757;SDS011;54562;47.620;18.786;2023-12-28T17:51:40;18.90;;;11.50;;
67757;SDS011;54562;47.620;18.786;2023-12-28T17:55:14;19.80;;;11.10;;
67757;SDS011;54562;47.620;18.786;2023-12-28T17:58:47;19.80;;;11.90;;
67757;SDS011;54562;47.620;18.786;2023-12-28T18:02:21;18.80;;;11.50;;
67757;SDS011;54562;47.620;18.786;2023-12-28T18:05:47;20.00;;;11.50;;
67757;SDS011;54562;47.620;18.786;2023-12-28T18:09:20;20.90;;;11.80;;
67757;SDS011;54562;47.620;18.786;2023-12-28T18:12:53;17.80;;;11.00;;
67757;SDS011;54562;47.620;18.786;2023-12-28T18:16:26;18.50;;;10.80;;
67757;SDS011;54562;47.620;18.786;2023-12-28T18:19:59;18.70;;;10.70;;
67757;SDS011;54562;47.620;18.786;2023-12-28T18:23:26;16.60;;;10.40;;
67757;SDS011;54562;47.620;18.786;2023-12-28T18:26:59;19.60;;;11.50;;
67757;SDS011;54562;47.620;18.786;2023-12-28T18:30:32;19.80;;;12.20;;
67757;SDS011;54562;47.620;18.786;2023-12-28T18:34:05;22.00;;;12.20;;
67757;SDS011;54562;47.620;18.786;2023-12-28T18:41:11;21.10;;;11.20;;
67757;SDS011;54562;47.620;18.786;2023-12-28T18:44:44;17.80;;;11.00;;
67757;SDS011;54562;47.620;18.786;2023-12-28T18:48:03;20.10;;;12.20;;
67757;SDS011;54562;47.620;18.786;2023-12-28T18:51:37;19.00;;;11.50;;
67757;SDS011;54562;47.620;18.786;2023-12-28T18:55:10;20.80;;;11.90;;
67757;SDS011;54562;47.620;18.786;2023-12-28T18:58:43;19.90;;;11.20;;
67757;SDS011;54562;47.620;18.786;2023-12-28T19:02:16;20.40;;;11.70;;
67757;SDS011;54562;47.620;18.786;2023-12-28T19:05:50;20.00;;;12.00;;
67757;SDS011;54562;47.620;18.786;2023-12-28T19:09:17;18.90;;;10.80;;
67757;SDS011;54562;47.620;18.786;2023-12-28T19:12:50;18.90;;;11.00;;
67757;SDS011;54562;47.620;18.786;2023-12-28T19:16:23;21.20;;;12.70;;
67757;SDS011;54562;47.620;18.786;2023-12-28T19:19:56;22.70;;;13.20;;
67757;SDS011;54562;47.620;18.786;2023-12-28T19:23:22;22.10;;;13.00;;
67757;SDS011;54562;47.620;18.786;2023-12-28T19:26:55;20.60;;;13.50;;
67757;SDS011;54562;47.620;18.786;2023-12-28T19:30:28;21.10;;;13.00;;
67757;SDS011;54562;47.620;18.786;2023-12-28T19:34:01;23.10;;;12.90;;
67757;SDS011;54562;47.620;18.786;2023-12-28T19:37:27;21.80;;;12.80;;
67757;SDS011;54562;47.620;18.786;2023-12-28T19:40:40;24.00;;;13.20;;
67757;SDS011;54562;47.620;18.786;2023-12-28T19:44:08;23.20;;;13.80;;
67757;SDS011;54562;47.620;18.786;2023-12-28T19:47:22;19.30;;;12.30;;
67757;SDS011;54562;47.620;18.786;2023-12-28T19:50:47;22.60;;;12.60;;
67757;SDS011;54562;47.620;18.786;2023-12-28T19:54:13;22.00;;;12.00;;
67757;SDS011;54562;47.620;18.786;2023-12-28T19:57:48;18.10;;;11.40;;
67757;SDS011;54562;47.620;18.786;2023-12-28T20:01:20;20.90;;;12.10;;
67757;SDS011;54562;47.620;18.786;2023-12-28T20:04:53;21.10;;;12.30;;
67757;SDS011;54562;47.620;18.786;2023-12-28T20:08:19;21.10;;;11.70;;
67757;SDS011;54562;47.620;18.786;2023-12-28T20:11:55;21.80;;;11.70;;
67757;SDS011;54562;47.620;18.786;2023-12-28T20:15:28;21.40;;;11.70;;
67757;SDS011;54562;47.620;18.786;2023-12-28T20:19:01;20.70;;;12.10;;
67757;SDS011;54562;47.620;18.786;2023-12-28T20:22:28;19.80;;;11.60;;
67757;SDS011;54562;47.620;18.786;2023-12-28T20:26:01;19.40;;;11.30;;
67757;SDS011;54562;47.620;18.786;2023-12-28T20:29:34;20.20;;;11.60;;
67757;SDS011;54562;47.620;18.786;2023-12-28T20:33:07;19.40;;;11.70;;